createdAt,value
2019-02-04T00:01:19.118Z,51.20
2019-02-04T00:03:46.222Z,51.10
2019-02-04T00:06:13.337Z,51.10
2019-02-04T00:08:40.414Z,51.10
2019-02-04T00:11:07.516Z,51.00
2019-02-04T00:13:34.613Z,51.10
2019-02-04T00:16:01.719Z,51.10
2019-02-04T00:18:28.804Z,51.70
2019-02-04T00:20:55.911Z,51.10
2019-02-04T00:23:22.996Z,51.00
2019-02-04T00:25:50.120Z,51.10
2019-02-04T00:28:17.233Z,51.00
2019-02-04T00:30:44.375Z,51.00
2019-02-04T00:33:11.450Z,51.00
2019-02-04T00:35:38.531Z,51.00
2019-02-04T00:38:05.609Z,51.00
2019-02-04T00:40:32.690Z,51.00
2019-02-04T00:42:59.805Z,51.00
2019-02-04T00:45:26.886Z,51.00
2019-02-04T00:47:53.956Z,50.90
2019-02-04T00:50:21.075Z,51.00
2019-02-04T00:52:48.146Z,50.90
2019-02-04T00:55:15.283Z,50.90
2019-02-04T00:57:42.402Z,50.90
2019-02-04T01:00:13.732Z,50.90
2019-02-04T01:02:40.813Z,50.90
2019-02-04T01:05:07.933Z,50.90
2019-02-04T01:07:35.038Z,50.90
2019-02-04T01:10:02.173Z,50.90
2019-02-04T01:12:29.244Z,50.90
2019-02-04T01:14:56.353Z,50.90
2019-02-04T01:17:23.419Z,50.90
2019-02-04T01:19:50.534Z,50.90
2019-02-04T01:22:17.648Z,50.80
2019-02-04T01:24:44.731Z,50.80
2019-02-04T01:27:11.898Z,50.80
2019-02-04T01:29:38.988Z,50.80
2019-02-04T01:32:06.060Z,50.80
2019-02-04T01:34:33.145Z,50.80
2019-02-04T01:37:00.228Z,50.80
2019-02-04T01:39:27.308Z,50.80
2019-02-04T01:41:54.409Z,50.80
2019-02-04T01:44:21.509Z,50.80
2019-02-04T01:46:51.452Z,50.90
2019-02-04T01:49:15.716Z,50.80
2019-02-04T01:51:42.848Z,50.80
2019-02-04T01:54:09.953Z,50.80
2019-02-04T01:56:37.056Z,50.80
2019-02-04T01:59:04.180Z,50.90
2019-02-04T02:01:31.280Z,50.80
2019-02-04T02:03:58.495Z,50.80
2019-02-04T02:06:25.498Z,50.80
2019-02-04T02:08:52.633Z,50.80
2019-02-04T02:11:19.723Z,50.80
2019-02-04T02:13:46.812Z,50.80
2019-02-04T02:16:13.912Z,50.80
2019-02-04T02:18:41.045Z,50.80
2019-02-04T02:21:08.176Z,50.70
2019-02-04T02:23:35.280Z,50.80
2019-02-04T02:26:02.356Z,50.80
2019-02-04T02:28:29.447Z,50.80
2019-02-04T02:30:56.549Z,50.80
2019-02-04T02:33:23.672Z,50.80
2019-02-04T02:35:50.774Z,50.80
2019-02-04T02:38:17.865Z,50.80
2019-02-04T02:40:44.955Z,50.80
2019-02-04T02:43:12.076Z,50.80
2019-02-04T02:45:39.179Z,50.80
2019-02-04T02:48:06.289Z,50.80
2019-02-04T02:50:33.410Z,50.80
2019-02-04T02:53:00.529Z,50.80
2019-02-04T02:55:27.622Z,50.80
2019-02-04T02:57:54.745Z,50.80
2019-02-04T03:00:23.526Z,50.80
2019-02-04T03:02:50.636Z,50.80
2019-02-04T03:05:17.768Z,50.80
2019-02-04T03:07:44.853Z,50.80
2019-02-04T03:10:14.532Z,50.80
2019-02-04T03:12:41.632Z,50.80
2019-02-04T03:15:08.962Z,51.40
2019-02-04T03:17:36.080Z,50.80
2019-02-04T03:20:03.725Z,50.80
2019-02-04T03:22:30.816Z,50.80
2019-02-04T03:24:57.894Z,50.80
2019-02-04T03:27:24.965Z,50.80
2019-02-04T03:29:52.052Z,51.40
2019-02-04T03:32:19.130Z,50.80
2019-02-04T03:34:52.897Z,50.80
2019-02-04T03:37:20.000Z,50.90
2019-02-04T03:39:47.102Z,50.80
2019-02-04T03:42:14.210Z,50.80
2019-02-04T03:44:41.316Z,50.80
2019-02-04T03:47:08.450Z,50.80
2019-02-04T03:49:35.541Z,50.90
2019-02-04T03:52:02.653Z,50.80
2019-02-04T03:54:29.772Z,50.80
2019-02-04T03:56:56.856Z,50.80
2019-02-04T03:59:23.949Z,50.90
2019-02-04T04:01:51.028Z,50.90
2019-02-04T04:04:18.151Z,50.80
2019-02-04T04:06:45.237Z,50.80
2019-02-04T04:09:12.296Z,50.80
2019-02-04T04:11:39.385Z,50.80
2019-02-04T04:14:06.477Z,50.80
2019-02-04T04:16:33.557Z,50.80
2019-02-04T04:19:00.649Z,50.80
2019-02-04T04:21:27.785Z,50.80
2019-02-04T04:23:54.882Z,50.80
2019-02-04T04:26:21.956Z,50.80
2019-02-04T04:28:49.061Z,50.80
2019-02-04T04:31:16.181Z,50.80
2019-02-04T04:33:43.251Z,50.80
2019-02-04T04:36:10.352Z,50.80
2019-02-04T04:38:37.453Z,50.80
2019-02-04T04:41:04.551Z,50.80
2019-02-04T04:43:31.682Z,50.90
2019-02-04T04:45:58.772Z,50.90
2019-02-04T04:48:26.873Z,50.80
2019-02-04T04:50:52.977Z,50.80
2019-02-04T04:53:20.081Z,50.90
2019-02-04T04:55:47.213Z,50.80
2019-02-04T04:58:14.305Z,50.90
2019-02-04T05:00:41.398Z,50.80
2019-02-04T05:03:08.509Z,50.90
2019-02-04T05:05:35.595Z,50.90
2019-02-04T05:08:02.712Z,50.80
2019-02-04T05:10:29.819Z,50.90
2019-02-04T05:12:56.884Z,50.80
2019-02-04T05:15:25.944Z,50.80
2019-02-04T05:17:53.207Z,50.90
2019-02-04T05:20:20.228Z,50.80
2019-02-04T05:22:47.299Z,50.90
2019-02-04T05:25:14.461Z,50.90
2019-02-04T05:27:41.560Z,50.90
2019-02-04T05:30:10.765Z,50.90
2019-02-04T05:32:37.873Z,50.90
2019-02-04T05:35:05.285Z,50.80
2019-02-04T05:37:32.386Z,50.80
2019-02-04T05:39:59.510Z,50.90
2019-02-04T05:42:26.673Z,50.90
2019-02-04T05:44:53.725Z,50.80
2019-02-04T05:47:20.833Z,50.90
2019-02-04T05:49:47.945Z,50.80
2019-02-04T05:52:15.044Z,50.80
2019-02-04T05:54:42.149Z,50.80
2019-02-04T05:57:09.265Z,50.80
2019-02-04T05:59:36.375Z,50.80
2019-02-04T06:02:03.505Z,50.80
2019-02-04T06:04:30.618Z,50.80
2019-02-04T06:06:57.733Z,50.80
2019-02-04T06:09:24.832Z,50.80
2019-02-04T06:11:51.936Z,50.90
2019-02-04T06:14:19.037Z,50.80
2019-02-04T06:16:46.145Z,50.80
2019-02-04T06:19:13.261Z,50.80
2019-02-04T06:21:40.402Z,50.80
2019-02-04T06:24:07.513Z,50.90
2019-02-04T06:26:34.609Z,50.90
2019-02-04T06:29:01.709Z,50.90
2019-02-04T06:31:28.833Z,50.80
2019-02-04T06:33:55.954Z,50.80
2019-02-04T06:36:23.266Z,50.80
2019-02-04T06:38:50.412Z,50.80
2019-02-04T06:41:17.504Z,50.80
2019-02-04T06:43:44.612Z,50.80
2019-02-04T06:46:11.717Z,50.70
2019-02-04T06:48:38.808Z,50.80
2019-02-04T06:51:05.909Z,50.80
2019-02-04T06:53:33.008Z,50.80
2019-02-04T06:56:00.124Z,50.80
2019-02-04T06:58:27.208Z,50.80
2019-02-04T07:00:54.318Z,50.80
2019-02-04T07:03:21.481Z,50.80
2019-02-04T07:05:48.606Z,50.80
2019-02-04T07:08:15.719Z,50.80
2019-02-04T07:10:42.816Z,50.80
2019-02-04T07:13:09.946Z,50.80
2019-02-04T07:15:37.072Z,50.70
2019-02-04T07:18:04.177Z,50.80
2019-02-04T07:20:31.304Z,50.80
2019-02-04T07:22:58.438Z,50.80
2019-02-04T07:25:25.566Z,50.80
2019-02-04T07:27:52.667Z,50.80
2019-02-04T07:30:21.731Z,50.70
2019-02-04T07:32:48.845Z,50.80
2019-02-04T07:35:16.092Z,50.80
2019-02-04T07:37:43.215Z,50.80
2019-02-04T07:40:14.336Z,50.80
2019-02-04T07:42:41.408Z,50.80
2019-02-04T07:45:08.614Z,50.80
2019-02-04T07:47:35.688Z,50.70
2019-02-04T07:50:02.780Z,50.70
2019-02-04T07:52:29.928Z,50.70
2019-02-04T07:54:57.020Z,50.70
2019-02-04T07:57:24.112Z,50.70
2019-02-04T07:59:51.225Z,50.70
2019-02-04T08:02:18.340Z,50.70
2019-02-04T08:04:45.460Z,50.80
2019-02-04T08:07:12.555Z,50.70
2019-02-04T08:09:39.665Z,50.70
2019-02-04T08:12:06.764Z,50.70
2019-02-04T08:14:33.870Z,50.80
2019-02-04T08:17:00.960Z,50.70
2019-02-04T08:19:28.029Z,50.80
2019-02-04T08:21:55.116Z,50.70
2019-02-04T08:24:22.224Z,50.70
2019-02-04T08:26:49.355Z,50.70
2019-02-04T08:29:16.420Z,50.80
2019-02-04T08:31:43.517Z,50.70
2019-02-04T08:34:10.630Z,50.70
2019-02-04T08:36:44.351Z,50.70
2019-02-04T08:39:07.012Z,50.80
2019-02-04T08:41:34.112Z,50.80
2019-02-04T08:44:01.216Z,50.80
2019-02-04T08:46:28.308Z,50.70
2019-02-04T08:48:55.420Z,50.80
2019-02-04T08:51:22.525Z,50.80
2019-02-04T08:53:49.625Z,50.80
2019-02-04T08:56:16.730Z,51.40
2019-02-04T08:58:43.829Z,51.40
2019-02-04T09:01:10.912Z,50.70
2019-02-04T09:03:38.024Z,50.70
2019-02-04T09:06:05.140Z,50.70
2019-02-04T09:08:32.265Z,50.70
2019-02-04T09:10:59.332Z,50.80
2019-02-04T09:13:26.416Z,50.70
2019-02-04T09:15:53.503Z,50.80
2019-02-04T09:18:20.581Z,50.80
2019-02-04T09:20:47.684Z,50.80
2019-02-04T09:23:14.812Z,50.80
2019-02-04T09:25:41.927Z,50.90
2019-02-04T09:28:09.041Z,50.80
2019-02-04T09:30:36.125Z,50.80
2019-02-04T09:33:03.245Z,50.80
2019-02-04T09:35:30.339Z,50.80
2019-02-04T09:37:57.431Z,50.80
2019-02-04T09:40:29.848Z,50.80
2019-02-04T09:42:56.965Z,50.80
2019-02-04T09:45:27.455Z,50.80
2019-02-04T09:47:51.124Z,50.80
2019-02-04T09:50:21.802Z,50.80
2019-02-04T09:52:46.327Z,50.80
2019-02-04T09:55:17.165Z,51.40
2019-02-04T09:57:44.164Z,50.80
2019-02-04T10:00:14.179Z,50.80
2019-02-04T10:02:41.249Z,50.70
2019-02-04T10:05:09.740Z,50.70
2019-02-04T10:07:36.848Z,50.80
2019-02-04T10:10:04.101Z,50.80
2019-02-04T10:12:31.225Z,50.80
2019-02-04T10:14:58.335Z,50.80
2019-02-04T10:17:25.506Z,50.80
2019-02-04T10:19:52.647Z,50.80
2019-02-04T10:22:19.778Z,50.80
2019-02-04T10:24:46.922Z,50.80
2019-02-04T10:27:14.002Z,50.80
2019-02-04T10:29:41.227Z,51.40
2019-02-04T10:32:08.310Z,50.80
2019-02-04T10:34:35.436Z,50.80
2019-02-04T10:37:02.544Z,50.80
2019-02-04T10:39:29.649Z,50.80
2019-02-04T10:41:56.773Z,50.80
2019-02-04T10:44:23.861Z,50.80
2019-02-04T10:46:50.982Z,50.90
2019-02-04T10:49:18.107Z,50.80
2019-02-04T10:51:45.164Z,50.90
2019-02-04T10:54:12.324Z,50.90
2019-02-04T10:56:39.443Z,50.80
2019-02-04T10:59:06.535Z,50.80
2019-02-04T11:01:33.656Z,50.80
2019-02-04T11:04:00.809Z,50.90
2019-02-04T11:06:27.927Z,50.80
2019-02-04T11:08:55.038Z,50.90
2019-02-04T11:11:22.205Z,50.80
2019-02-04T11:13:49.301Z,50.80
2019-02-04T11:16:16.394Z,50.80
2019-02-04T11:18:43.520Z,50.90
2019-02-04T11:21:10.708Z,50.80
2019-02-04T11:23:37.875Z,50.80
2019-02-04T11:26:04.997Z,50.80
2019-02-04T11:28:32.087Z,50.80
2019-02-04T11:31:01.165Z,50.80
2019-02-04T11:33:28.265Z,50.90
2019-02-04T11:35:55.377Z,50.80
2019-02-04T11:38:22.507Z,50.80
2019-02-04T11:40:49.612Z,50.80
2019-02-04T11:43:16.722Z,50.80
2019-02-04T11:45:43.829Z,50.80
2019-02-04T11:48:10.965Z,50.80
2019-02-04T11:50:38.148Z,50.90
2019-02-04T11:53:05.237Z,50.90
2019-02-04T11:55:32.321Z,50.90
2019-02-04T11:57:59.407Z,50.90
2019-02-04T12:00:27.308Z,50.80
2019-02-04T12:02:54.925Z,50.90
2019-02-04T12:05:22.108Z,50.90
2019-02-04T12:07:49.288Z,50.90
2019-02-04T12:10:22.628Z,50.80
2019-02-04T12:12:49.853Z,50.90
2019-02-04T12:15:18.475Z,50.80
2019-02-04T12:17:45.808Z,50.90
2019-02-04T12:20:14.324Z,50.80
2019-02-04T12:22:41.613Z,50.80
2019-02-04T12:25:10.395Z,50.80
2019-02-04T12:27:37.890Z,50.80
2019-02-04T12:30:06.720Z,50.80
2019-02-04T12:32:34.117Z,50.70
2019-02-04T12:35:01.440Z,50.80
2019-02-04T12:37:28.814Z,50.80
2019-02-04T12:39:56.140Z,50.80
2019-02-04T12:42:23.497Z,50.80
2019-02-04T12:44:50.780Z,50.80
2019-02-04T12:47:17.982Z,50.70
2019-02-04T12:49:45.301Z,50.70
2019-02-04T12:52:12.456Z,50.70
2019-02-04T12:54:39.561Z,50.70
2019-02-04T12:57:06.719Z,50.70
2019-02-04T12:59:33.817Z,50.70
2019-02-04T13:02:00.980Z,50.70
2019-02-04T13:04:28.132Z,50.70
2019-02-04T13:06:55.292Z,50.70
2019-02-04T13:09:22.405Z,50.70
2019-02-04T13:11:49.530Z,50.70
2019-02-04T13:14:16.644Z,50.70
2019-02-04T13:16:43.773Z,50.70
2019-02-04T13:19:11.004Z,50.70
2019-02-04T13:21:44.971Z,50.70
2019-02-04T13:24:05.262Z,50.60
2019-02-04T13:26:32.396Z,50.70
2019-02-04T13:28:59.515Z,50.60
2019-02-04T13:31:26.627Z,50.70
2019-02-04T13:33:53.717Z,50.60
2019-02-04T13:36:20.848Z,50.60
2019-02-04T13:38:47.971Z,50.60
2019-02-04T13:41:15.124Z,50.60
2019-02-04T13:43:42.280Z,50.60
2019-02-04T13:46:09.411Z,50.60
2019-02-04T13:48:36.513Z,50.60
2019-02-04T13:51:03.666Z,50.60
2019-02-04T13:53:30.748Z,50.60
2019-02-04T13:55:57.837Z,50.50
2019-02-04T13:58:24.920Z,50.50
2019-02-04T14:00:52.228Z,50.50
2019-02-04T14:03:19.468Z,50.50
2019-02-04T14:05:47.368Z,50.50
2019-02-04T14:08:14.511Z,50.50
2019-02-04T14:10:42.281Z,50.50
2019-02-04T14:13:09.365Z,50.50
2019-02-04T14:15:36.547Z,50.50
2019-02-04T14:18:04.025Z,50.40
2019-02-04T14:20:31.149Z,50.40
2019-02-04T14:22:58.264Z,50.40
2019-02-04T14:25:27.137Z,50.50
2019-02-04T14:27:54.709Z,50.40
2019-02-04T14:30:24.853Z,50.40
2019-02-04T14:32:52.594Z,50.40
2019-02-04T14:35:20.419Z,50.40
2019-02-04T14:37:48.251Z,50.40
2019-02-04T14:40:18.711Z,50.40
2019-02-04T14:42:44.835Z,50.40
2019-02-04T14:45:20.958Z,50.40
2019-02-04T14:48:04.148Z,50.40
2019-02-04T14:54:42.290Z,50.40
2019-02-04T14:57:28.817Z,50.40
2019-02-04T15:00:05.203Z,50.40
2019-02-04T15:02:40.732Z,50.40
2019-02-04T15:05:19.440Z,50.40
2019-02-04T15:10:03.558Z,50.40
2019-02-04T15:12:43.552Z,50.40
2019-02-04T15:15:30.517Z,50.40
2019-02-04T15:18:08.266Z,50.40
2019-02-04T15:22:45.419Z,50.40
2019-02-04T15:27:30.086Z,50.40
2019-02-04T15:30:07.021Z,50.40
2019-02-04T15:32:46.629Z,50.40
2019-02-04T15:35:32.925Z,50.40
2019-02-04T15:38:16.045Z,50.40
2019-02-04T15:40:54.069Z,50.50
2019-02-04T15:43:31.396Z,50.40
2019-02-04T15:46:07.848Z,50.40
2019-02-04T15:48:42.561Z,50.40
2019-02-04T15:51:15.623Z,50.40
2019-02-04T15:53:42.809Z,50.50
2019-02-04T15:56:09.901Z,50.40
2019-02-04T15:58:37.004Z,50.50
2019-02-04T16:01:04.896Z,50.40
2019-02-04T16:03:31.464Z,50.40
2019-02-04T16:05:58.588Z,50.50
2019-02-04T16:08:25.705Z,50.50
2019-02-04T16:10:52.785Z,50.50
2019-02-04T16:13:19.957Z,50.50
2019-02-04T16:15:47.061Z,50.60
2019-02-04T16:18:14.148Z,50.60
2019-02-04T16:20:41.260Z,50.60
2019-02-04T16:23:08.365Z,50.60
2019-02-04T16:25:35.494Z,50.60
2019-02-04T16:28:02.625Z,50.60
2019-02-04T16:30:29.853Z,50.60
2019-02-04T16:32:56.816Z,50.60
2019-02-04T16:35:23.944Z,50.60
2019-02-04T16:37:51.049Z,50.60
2019-02-04T16:40:19.472Z,50.60
2019-02-04T16:42:46.549Z,50.60
2019-02-04T16:45:14.001Z,50.60
2019-02-04T16:47:41.120Z,50.70
2019-02-04T16:50:11.829Z,50.70
2019-02-04T16:52:38.967Z,50.70
2019-02-04T16:55:06.104Z,50.60
2019-02-04T16:57:33.173Z,50.70
2019-02-04T17:00:00.342Z,50.70
2019-02-04T17:02:27.405Z,50.60
2019-02-04T17:04:54.650Z,50.70
2019-02-04T17:07:21.637Z,50.70
2019-02-04T17:09:48.734Z,50.70
2019-02-04T17:12:15.886Z,50.60
2019-02-04T17:14:42.976Z,50.70
2019-02-04T17:17:10.049Z,50.70
2019-02-04T17:19:37.158Z,50.70
2019-02-04T17:22:04.288Z,50.70
2019-02-04T17:24:31.378Z,50.70
2019-02-04T17:26:58.511Z,50.70
2019-02-04T17:29:25.637Z,50.70
2019-02-04T17:31:52.742Z,50.70
2019-02-04T17:34:19.933Z,50.70
2019-02-04T17:36:47.029Z,50.70
2019-02-04T17:39:14.173Z,50.70
2019-02-04T17:41:41.312Z,50.70
2019-02-04T17:44:08.437Z,50.70
2019-02-04T17:46:35.574Z,50.70
2019-02-04T17:49:02.780Z,50.70
2019-02-04T17:51:31.927Z,50.70
2019-02-04T17:53:57.050Z,50.70
2019-02-04T17:56:24.164Z,50.70
2019-02-04T17:58:51.353Z,50.70
2019-02-04T18:01:18.502Z,50.70
2019-02-04T18:03:45.610Z,50.70
2019-02-04T18:06:12.723Z,50.70
2019-02-04T18:08:39.841Z,50.70
2019-02-04T18:11:06.968Z,50.60
2019-02-04T18:13:34.032Z,50.70
2019-02-04T18:16:01.114Z,50.60
2019-02-04T18:18:28.240Z,50.70
2019-02-04T18:20:55.359Z,50.70
2019-02-04T18:23:22.431Z,50.70
2019-02-04T18:25:49.530Z,50.60
2019-02-04T18:28:16.623Z,50.60
2019-02-04T18:30:43.714Z,50.60
2019-02-04T18:33:10.826Z,50.60
2019-02-04T18:35:37.941Z,50.60
2019-02-04T18:38:05.055Z,50.60
2019-02-04T18:40:32.183Z,50.70
2019-02-04T18:42:59.258Z,50.70
2019-02-04T18:45:27.176Z,50.70
2019-02-04T18:47:54.295Z,50.70
2019-02-04T18:50:21.437Z,50.60
2019-02-04T18:52:48.557Z,50.60
2019-02-04T18:55:17.817Z,50.60
2019-02-04T18:57:44.982Z,50.60
2019-02-04T19:00:14.445Z,50.60
2019-02-04T19:02:41.533Z,50.60
2019-02-04T19:05:08.686Z,50.60
2019-02-04T19:07:35.800Z,50.60
2019-02-04T19:10:03.345Z,50.60
2019-02-04T19:12:30.441Z,50.60
2019-02-04T19:14:57.579Z,50.60
2019-02-04T19:17:24.689Z,51.20
2019-02-04T19:19:51.814Z,50.70
2019-02-04T19:22:18.908Z,50.60
2019-02-04T19:24:46.004Z,50.60
2019-02-04T19:27:13.113Z,50.60
2019-02-04T19:29:40.216Z,50.50
2019-02-04T19:32:07.333Z,50.50
2019-02-04T19:34:34.445Z,50.60
2019-02-04T19:37:01.554Z,50.50
2019-02-04T19:39:28.660Z,50.50
2019-02-04T19:41:55.781Z,50.50
2019-02-04T19:44:22.904Z,50.50
2019-02-04T19:46:50.077Z,50.50
2019-02-04T19:49:17.197Z,50.50
2019-02-04T19:51:44.336Z,50.50
2019-02-04T19:54:21.284Z,50.40
2019-02-04T19:56:38.557Z,50.50
2019-02-04T19:59:05.657Z,50.50
2019-02-04T20:01:32.781Z,50.50
2019-02-04T20:03:59.914Z,50.50
2019-02-04T20:06:27.040Z,50.50
2019-02-04T20:08:54.172Z,50.40
2019-02-04T20:11:21.309Z,50.40
2019-02-04T20:13:48.454Z,50.40
2019-02-04T20:16:15.559Z,50.40
2019-02-04T20:18:42.677Z,50.40
2019-02-04T20:21:09.839Z,50.40
2019-02-04T20:23:36.929Z,50.40
2019-02-04T20:26:04.058Z,50.40
2019-02-04T20:28:31.165Z,50.40
2019-02-04T20:30:58.259Z,50.40
2019-02-04T20:33:25.386Z,50.40
2019-02-04T20:35:52.528Z,50.40
2019-02-04T20:38:19.658Z,50.40
2019-02-04T20:40:46.789Z,50.40
2019-02-04T20:43:13.968Z,50.40
2019-02-04T20:45:41.130Z,50.30
2019-02-04T20:48:10.529Z,50.30
2019-02-04T20:50:38.701Z,50.30
2019-02-04T20:53:05.854Z,50.30
2019-02-04T20:55:32.956Z,50.30
2019-02-04T20:58:00.107Z,50.20
2019-02-04T21:00:27.870Z,50.30
2019-02-04T21:02:55.002Z,50.20
2019-02-04T21:05:22.183Z,50.30
2019-02-04T21:07:49.260Z,50.20
2019-02-04T21:10:17.898Z,50.20
2019-02-04T21:12:45.036Z,50.20
2019-02-04T21:15:12.168Z,50.10
2019-02-04T21:17:39.293Z,50.20
2019-02-04T21:20:09.824Z,50.20
2019-02-04T21:22:36.917Z,50.20
2019-02-04T21:25:04.928Z,50.20
2019-02-04T21:27:32.032Z,50.20
2019-02-04T21:30:00.342Z,50.20
2019-02-04T21:32:27.216Z,50.20
2019-02-04T21:34:54.308Z,50.20
2019-02-04T21:37:21.408Z,50.10
2019-02-04T21:39:48.533Z,50.10
2019-02-04T21:42:15.637Z,50.20
2019-02-04T21:44:42.746Z,50.10
2019-02-04T21:47:09.834Z,50.10
2019-02-04T21:49:36.961Z,50.10
2019-02-04T21:52:04.061Z,50.10
2019-02-04T21:54:31.161Z,50.70
2019-02-04T21:56:58.312Z,50.10
2019-02-04T21:59:25.388Z,50.10
2019-02-04T22:01:52.511Z,50.10
2019-02-04T22:04:19.605Z,50.10
2019-02-04T22:06:46.669Z,50.10
2019-02-04T22:09:13.801Z,50.10
2019-02-04T22:11:40.900Z,50.10
2019-02-04T22:14:08.037Z,50.10
2019-02-04T22:16:35.136Z,50.00
2019-02-04T22:19:02.252Z,50.10
2019-02-04T22:21:29.316Z,50.00
2019-02-04T22:23:56.392Z,50.00
2019-02-04T22:26:23.491Z,50.00
2019-02-04T22:28:50.616Z,50.00
2019-02-04T22:31:17.709Z,50.00
2019-02-04T22:33:44.805Z,50.00
2019-02-04T22:36:11.905Z,50.00
2019-02-04T22:38:39.019Z,50.00
2019-02-04T22:41:06.140Z,50.00
2019-02-04T22:43:33.234Z,49.90
2019-02-04T22:46:00.349Z,50.00
2019-02-04T22:48:27.463Z,49.90
2019-02-04T22:50:54.583Z,50.00
2019-02-04T22:53:21.669Z,50.00
2019-02-04T22:55:48.753Z,49.90
2019-02-04T22:58:15.843Z,50.00
2019-02-04T23:00:57.782Z,49.90
2019-02-04T23:03:25.241Z,49.90
2019-02-04T23:05:52.345Z,49.90
2019-02-04T23:08:19.420Z,49.90
2019-02-04T23:10:46.516Z,49.90
2019-02-04T23:13:13.608Z,49.90
2019-02-04T23:15:40.693Z,49.90
2019-02-04T23:18:07.818Z,49.90
2019-02-04T23:20:34.936Z,49.80
2019-02-04T23:23:02.051Z,49.90
2019-02-04T23:25:29.145Z,49.90
2019-02-04T23:27:56.212Z,49.80
2019-02-04T23:30:23.319Z,49.80
2019-02-04T23:32:50.418Z,49.80
2019-02-04T23:35:17.553Z,49.80
2019-02-04T23:37:44.637Z,49.80
2019-02-04T23:40:11.725Z,49.80
2019-02-04T23:42:38.814Z,49.80
2019-02-04T23:45:05.952Z,49.80
2019-02-04T23:47:33.036Z,49.80
2019-02-04T23:50:00.332Z,49.80
2019-02-04T23:52:27.237Z,49.70
2019-02-04T23:54:54.399Z,49.70
2019-02-04T23:57:21.494Z,49.80
2019-02-04T23:59:48.604Z,49.80
